LSMM Airport Information

Runway Information
Runway 10 Length 6571 ft width 130 ft
Elevation 1885 ft Threshold 0 ft Heading 95
Runway 28 Length 6571 ft Width 130 ft
Elevation 1895 ft Threshold 0 ft Heading 275
Airport Frequencies
Type ARR Name ARR/DEP Frequency 37.012 MHZ
Type ARR Name ARR/DEP Frequency 138.275 MHZ
Type INFO Name INFO Frequency 138.05 MHZ
Type TWR Name TWR Frequency 130.15 MHZ
Airport Navaids
Airport Weather Information & NOTAM
ADDS - METARS form results

(1130 UTC 21 September 2018)
Data provider http://aviationweather.gov/metar/data/
 
METAR text: LSMM 211120Z AUTO 00000KT 9999NDV FEW095 22/14 Q1016 RMK
Conditions at: LSMM (MEIRINGEN , CH) observed 1120 UTC 21 September 2018
Temperature: 22.0°C (72°F)
Dewpoint: 14.0°C (57°F) [RH = 60%]
Pressure (altimeter): 30.00 inches Hg (1016.0 mb)
Winds: calm
Visibility: missing
Ceiling: at least 12,000 feet AGL
Clouds: few clouds at 9500 feet AGL
Weather: no significant weather observed at this time

METAR text: LSMM 211050Z AUTO VRB02KT 9999NDV NCD 20/13 Q1016 RMK
Conditions at: LSMM (MEIRINGEN , CH) observed 1050 UTC 21 September 2018
Temperature: 20.0°C (68°F)
Dewpoint: 13.0°C (55°F) [RH = 64%]
Pressure (altimeter): 30.00 inches Hg (1016.0 mb)
Winds: variable direction winds at 2 MPH (2 knots; 1.0 m/s)
Visibility: missing
Ceiling: at least 12,000 feet AGL
Clouds: sky clear below 12,000 feet AGL
Weather: no significant weather observed at this time